Time;durP1;ratioP1;P1;durP2;ratioP2;P2;SDS_P1;SDS_P2;PMS_P1;PMS_P2;Temp;Humidity;BMP_temperature;BMP_pressure;BME280_temperature;BME280_humidity;BME280_pressure;Samples;Min_cycle;Max_cycle;Signal;HPM_P1;HPM_P2
2023/04/28 00:01:14;;;;;;;1.50;0.30;;;;;;;9.83;83.93;101070.28;5061709;28;20029;-70
2023/04/28 00:03:40;;;;;;;3.10;0.30;;;;;;;9.97;81.73;101075.16;5065043;28;20112;-70
2023/04/28 00:06:05;;;;;;;1.45;0.20;;;;;;;10.03;81.29;101077.25;5068301;28;20052;-71
2023/04/28 00:08:31;;;;;;;3.83;0.40;;;;;;;10.05;81.40;101062.34;5058463;28;20123;-71
2023/04/28 00:10:57;;;;;;;5.82;0.35;;;;;;;10.04;81.33;101065.91;5062367;28;20040;-71
2023/04/28 00:13:23;;;;;;;1.15;0.50;;;;;;;10.05;80.83;101062.34;5070439;28;20039;-71
2023/04/28 00:15:51;;;;;;;9.25;0.77;;;;;;;10.01;79.84;101060.94;5057735;28;20072;-71
2023/04/28 00:18:20;;;;;;;1.58;0.30;;;;;;;10.02;80.36;101057.38;5045569;28;20024;-71
2023/04/28 00:20:46;;;;;;;1.40;0.40;;;;;;;10.01;79.97;101066.16;5063038;28;20462;-70
2023/04/28 00:23:12;;;;;;;1.90;0.40;;;;;;;10.04;79.37;101073.72;5070422;28;20063;-71
2023/04/28 00:25:37;;;;;;;2.08;0.30;;;;;;;10.04;79.51;101065.91;5072108;28;20063;-71
2023/04/28 00:28:02;;;;;;;0.88;0.30;;;;;;;9.97;80.28;101060.38;5066214;28;20056;-71
2023/04/28 00:30:31;;;;;;;1.00;0.30;;;;;;;9.89;80.94;101057.59;5067546;28;20037;-71
2023/04/28 00:32:56;;;;;;;3.22;0.40;;;;;;;9.84;81.99;101059.75;5066645;28;20131;-71
2023/04/28 00:35:22;;;;;;;1.42;0.30;;;;;;;9.77;82.74;101060.38;5067163;28;20114;-71
2023/04/28 00:37:48;;;;;;;2.05;0.30;;;;;;;9.74;82.92;101050.22;5071100;28;20031;-71
2023/04/28 00:40:13;;;;;;;1.65;0.30;;;;;;;9.75;82.71;101051.84;5064775;28;20037;-71
2023/04/28 00:42:39;;;;;;;2.00;0.30;;;;;;;9.78;82.74;101049.84;5070117;28;20028;-71
2023/04/28 00:45:06;;;;;;;3.22;0.47;;;;;;;9.80;82.56;101053.13;5067644;28;20123;-71
2023/04/28 00:47:36;;;;;;;0.80;0.30;;;;;;;9.80;82.34;101050.53;5072853;28;20036;-71
2023/04/28 00:50:02;;;;;;;0.82;0.20;;;;;;;9.84;82.26;101056.31;5071858;28;20036;-71
2023/04/28 00:52:28;;;;;;;2.45;0.30;;;;;;;9.86;81.69;101057.03;5065659;28;20047;-71
2023/04/28 00:54:55;;;;;;;3.75;0.40;;;;;;;9.87;81.70;101059.50;5064897;28;20123;-71
2023/04/28 00:57:22;;;;;;;1.65;0.60;;;;;;;9.88;81.56;101055.13;5075466;28;20028;-71
2023/04/28 00:59:47;;;;;;;1.42;0.28;;;;;;;9.89;81.56;101051.56;5071610;28;20120;-71
2023/04/28 01:02:16;;;;;;;1.52;0.30;;;;;;;9.88;81.71;101049.91;5074635;28;20115;-71
2023/04/28 01:04:43;;;;;;;0.50;0.20;;;;;;;9.83;81.74;101046.84;5066519;28;20036;-71
2023/04/28 01:07:09;;;;;;;2.30;0.38;;;;;;;9.80;81.67;101052.31;5063064;28;20090;-70
2023/04/28 01:09:34;;;;;;;0.75;0.30;;;;;;;9.76;82.02;101048.31;5061185;28;20033;-70
2023/04/28 01:12:00;;;;;;;1.63;0.40;;;;;;;9.69;82.52;101042.78;5065158;28;20089;-71
2023/04/28 01:14:26;;;;;;;0.70;0.30;;;;;;;9.68;82.52;101042.91;5068856;28;20037;-70
2023/04/28 01:16:52;;;;;;;1.02;0.50;;;;;;;9.72;82.44;101052.09;5061955;28;20032;-71
2023/04/28 01:19:21;;;;;;;1.48;0.32;;;;;;;9.66;82.82;101050.81;5064167;28;20025;-71
2023/04/28 01:21:51;;;;;;;2.30;0.40;;;;;;;9.67;82.45;101055.09;5064987;28;20041;-71
2023/04/28 01:24:17;;;;;;;1.42;0.40;;;;;;;9.65;82.79;101055.19;5047453;28;20024;-70
2023/04/28 01:26:42;;;;;;;2.28;0.30;;;;;;;9.62;83.11;101047.66;5065522;28;20028;-71
2023/04/28 01:29:08;;;;;;;1.38;0.40;;;;;;;9.58;83.41;101048.84;5065963;28;20024;-71
2023/04/28 01:31:33;;;;;;;3.22;0.43;;;;;;;9.63;82.85;101051.06;5062212;28;20032;-71
2023/04/28 01:33:58;;;;;;;2.60;0.40;;;;;;;9.64;83.21;101050.13;5061345;28;20111;-71
2023/04/28 01:36:26;;;;;;;1.23;0.30;;;;;;;9.65;82.85;101050.00;5062286;28;20032;-71
2023/04/28 01:38:51;;;;;;;0.80;0.35;;;;;;;9.69;82.73;101049.75;5066429;28;20035;-71
2023/04/28 01:41:17;;;;;;;1.77;0.35;;;;;;;9.66;82.97;101048.22;5066879;28;20035;-71
2023/04/28 01:43:42;;;;;;;1.08;0.40;;;;;;;9.58;83.26;101045.41;5065635;28;20040;-70
2023/04/28 01:46:11;;;;;;;1.00;0.50;;;;;;;9.51;83.72;101045.06;5068749;28;20480;-71
2023/04/28 01:48:36;;;;;;;3.55;0.40;;;;;;;9.42;84.37;101039.81;5073504;28;20077;-70
2023/04/28 01:51:02;;;;;;;0.95;0.30;;;;;;;9.37;84.79;101040.19;5078238;28;20035;-71
2023/04/28 01:53:27;;;;;;;1.80;0.30;;;;;;;9.32;85.14;101037.94;5062443;28;20086;-71
2023/04/28 01:55:53;;;;;;;2.75;0.30;;;;;;;9.32;84.93;101045.75;5066316;28;20025;-71
2023/04/28 01:58:18;;;;;;;2.38;0.40;;;;;;;9.38;85.08;101052.22;5063200;28;20040;-70
2023/04/28 02:00:44;;;;;;;2.08;0.35;;;;;;;9.44;84.66;101054.34;5068032;28;20035;-71
2023/04/28 02:03:10;;;;;;;0.55;0.25;;;;;;;9.50;83.96;101048.63;5058918;28;20052;-70
2023/04/28 02:05:36;;;;;;;1.98;0.30;;;;;;;9.55;83.63;101046.47;5062559;28;20049;-71
2023/04/28 02:08:01;;;;;;;2.50;0.30;;;;;;;9.56;83.71;101042.94;5061708;28;20155;-70
2023/04/28 02:10:28;;;;;;;2.90;0.40;;;;;;;9.56;83.97;101040.34;5062213;28;20048;-71
2023/04/28 02:12:54;;;;;;;1.80;0.35;;;;;;;9.58;84.11;101043.63;5061930;28;20036;-71
2023/04/28 02:15:20;;;;;;;2.83;0.20;;;;;;;9.58;84.07;101043.63;5060535;28;20037;-71
2023/04/28 02:17:46;;;;;;;1.95;0.50;;;;;;;9.59;84.21;101042.69;5065735;28;20047;-71
2023/04/28 02:20:13;;;;;;;0.98;0.30;;;;;;;9.54;84.59;101042.22;5059905;28;20037;-71
2023/04/28 02:22:40;;;;;;;3.13;0.60;;;;;;;9.51;84.70;101041.66;5066483;28;20033;-71
2023/04/28 02:25:07;;;;;;;0.70;0.30;;;;;;;9.49;85.04;101043.53;5065248;28;20102;-71
2023/04/28 02:27:37;;;;;;;1.52;0.30;;;;;;;9.45;85.61;101039.56;5067389;28;20032;-71
2023/04/28 02:30:05;;;;;;;5.25;0.50;;;;;;;9.36;86.20;101033.31;5067877;28;20108;-71
2023/04/28 02:32:31;;;;;;;3.10;0.30;;;;;;;9.30;86.73;101042.44;5071191;28;20169;-71
2023/04/28 02:34:57;;;;;;;2.47;0.43;;;;;;;9.25;87.90;101041.16;5050674;28;20037;-70
2023/04/28 02:37:23;;;;;;;0.95;0.30;;;;;;;9.07;89.65;101037.41;5046797;28;20388;-71
2023/04/28 02:39:49;;;;;;;2.17;0.50;;;;;;;8.95;90.59;101029.63;5062701;28;20028;-71
2023/04/28 02:42:15;;;;;;;4.22;0.73;;;;;;;8.84;91.62;101042.63;5061782;28;20048;-71
2023/04/28 02:44:40;;;;;;;2.38;0.68;;;;;;;8.67;93.01;101045.72;5065595;28;20035;-71
2023/04/28 02:47:07;;;;;;;1.83;0.50;;;;;;;8.60;93.75;101044.53;5046018;28;20032;-71
2023/04/28 02:49:33;;;;;;;2.72;0.60;;;;;;;8.47;93.90;101049.03;5067489;28;20032;-71
2023/04/28 02:51:59;;;;;;;1.52;0.50;;;;;;;8.42;93.98;101051.13;5065730;28;20031;-71
2023/04/28 02:54:29;;;;;;;3.63;0.40;;;;;;;8.53;92.81;101051.13;5065023;28;20040;-70
2023/04/28 02:56:56;;;;;;;1.35;0.50;;;;;;;8.74;91.56;101051.25;5064456;28;20039;-71
2023/04/28 02:59:23;;;;;;;2.95;0.63;;;;;;;8.95;89.42;101040.03;5065813;28;20044;-71
2023/04/28 03:01:50;;;;;;;1.15;0.30;;;;;;;9.15;88.25;101035.84;5065988;28;20025;-71
2023/04/28 03:04:16;;;;;;;1.38;0.43;;;;;;;9.30;87.16;101045.03;5068335;28;20024;-70
2023/04/28 03:06:42;;;;;;;2.30;0.40;;;;;;;9.24;88.09;101045.53;5045322;28;20489;-71
2023/04/28 03:09:08;;;;;;;2.90;0.40;;;;;;;9.16;89.94;101039.28;5067494;28;20039;-71
2023/04/28 03:11:35;;;;;;;1.50;0.40;;;;;;;8.90;91.07;101052.56;5062553;28;20032;-70
2023/04/28 03:14:01;;;;;;;1.40;0.40;;;;;;;9.05;89.03;101047.91;5060806;28;20040;-71
2023/04/28 03:16:27;;;;;;;1.33;0.40;;;;;;;9.19;87.59;101044.22;5065759;28;20440;-70
2023/04/28 03:18:53;;;;;;;2.45;0.40;;;;;;;9.21;87.22;101047.53;5071708;28;20111;-71
2023/04/28 03:21:19;;;;;;;3.03;0.30;;;;;;;9.21;86.91;101039.75;5060935;28;20024;-71
2023/04/28 03:23:44;;;;;;;4.13;0.30;;;;;;;9.28;86.60;101043.50;5055991;28;20054;-70
2023/04/28 03:26:10;;;;;;;1.33;0.30;;;;;;;9.30;86.42;101039.84;5065898;28;20036;-71
2023/04/28 03:28:36;;;;;;;2.33;0.50;;;;;;;9.32;86.72;101042.31;5062095;28;20516;-70
2023/04/28 03:31:02;;;;;;;2.78;0.50;;;;;;;9.18;87.16;101033.00;5065045;28;20042;-71
2023/04/28 03:33:27;;;;;;;5.15;0.32;;;;;;;9.23;87.04;101040.44;5048090;28;20404;-70
2023/04/28 03:35:54;;;;;;;2.45;0.30;;;;;;;9.27;86.89;101034.88;5050335;28;20083;-71
2023/04/28 03:38:20;;;;;;;4.60;0.47;;;;;;;9.26;87.66;101027.19;5058002;28;20400;-71
2023/04/28 03:40:46;;;;;;;1.70;0.40;;;;;;;9.26;87.53;101029.81;5068799;28;20151;-71
2023/04/28 03:43:12;;;;;;;1.20;0.30;;;;;;;9.26;87.64;101027.19;5063568;28;20107;-71
2023/04/28 03:45:39;;;;;;;1.00;0.30;;;;;;;9.28;87.32;101030.50;5055346;28;20032;-71
2023/04/28 03:48:05;;;;;;;1.40;0.30;;;;;;;9.28;87.08;101027.91;5064358;28;20024;-70
2023/04/28 03:50:31;;;;;;;2.78;0.60;;;;;;;9.31;86.75;101022.47;5063167;28;20120;-71
2023/04/28 03:52:56;;;;;;;2.35;0.30;;;;;;;9.27;86.63;101024.47;5064145;28;20472;-71
2023/04/28 03:55:22;;;;;;;1.33;0.40;;;;;;;9.29;86.75;101021.75;5063124;28;20090;-71
2023/04/28 03:57:47;;;;;;;2.65;0.30;;;;;;;9.29;86.86;101017.38;5064011;28;20035;-71
2023/04/28 04:00:13;;;;;;;3.25;0.43;;;;;;;9.26;87.44;101014.19;5062586;28;20082;-71
2023/04/28 04:02:39;;;;;;;2.50;0.35;;;;;;;9.25;88.03;101020.34;5062840;28;20067;-71
2023/04/28 04:05:04;;;;;;;1.70;0.50;;;;;;;9.19;88.88;101021.66;5064699;28;20063;-71
2023/04/28 04:07:31;;;;;;;3.67;0.63;;;;;;;9.16;89.45;101021.06;5059581;28;20464;-71
2023/04/28 04:09:57;;;;;;;1.13;0.30;;;;;;;9.12;89.94;101024.88;5062912;28;20056;-71
2023/04/28 04:12:23;;;;;;;2.67;0.40;;;;;;;9.10;90.09;101027.59;5061605;28;20091;-71
2023/04/28 04:14:48;;;;;;;1.88;0.80;;;;;;;9.10;90.28;101024.97;5070180;28;20086;-71
2023/04/28 04:17:14;;;;;;;8.95;0.60;;;;;;;9.08;90.56;101028.66;5065235;28;20032;-71
2023/04/28 04:19:40;;;;;;;2.20;1.02;;;;;;;9.01;91.45;101027.47;5067016;28;20442;-71
2023/04/28 04:22:06;;;;;;;2.95;0.52;;;;;;;8.97;92.09;101037.31;5065913;28;20040;-71
2023/04/28 04:24:31;;;;;;;3.03;0.60;;;;;;;8.95;92.23;101037.44;5070525;28;20041;-71
2023/04/28 04:26:58;;;;;;;7.68;0.70;;;;;;;8.90;92.95;101031.78;5063408;28;20040;-71
2023/04/28 04:29:24;;;;;;;2.92;1.48;;;;;;;8.94;92.83;101045.34;5069716;28;20031;-70
2023/04/28 04:31:50;;;;;;;1.67;0.60;;;;;;;8.97;92.55;101048.53;5073753;28;20020;-70
2023/04/28 04:34:16;;;;;;;1.15;0.50;;;;;;;8.95;92.78;101045.22;5051406;28;20425;-71
2023/04/28 04:36:43;;;;;;;1.08;0.50;;;;;;;8.99;92.69;101040.59;5068755;28;20610;-71
2023/04/28 04:39:09;;;;;;;2.08;0.50;;;;;;;9.05;92.24;101040.13;5068514;28;20119;-71
2023/04/28 04:41:34;;;;;;;1.77;0.50;;;;;;;9.12;92.07;101043.06;5068918;28;20063;-71
2023/04/28 04:44:00;;;;;;;1.92;0.40;;;;;;;9.17;91.89;101043.53;5069476;28;20052;-71
2023/04/28 04:46:26;;;;;;;2.97;0.40;;;;;;;9.23;91.26;101043.03;5048890;28;20040;-71
2023/04/28 04:48:52;;;;;;;1.75;0.50;;;;;;;9.34;91.03;101050.81;5075268;28;20040;-71
2023/04/28 04:51:18;;;;;;;2.20;0.50;;;;;;;9.40;90.46;101049.50;5061313;28;20087;-71
2023/04/28 04:53:44;;;;;;;1.55;0.55;;;;;;;9.45;90.42;101048.16;5066257;28;20096;-71
2023/04/28 04:56:09;;;;;;;4.28;0.50;;;;;;;9.52;89.62;101036.31;5069105;28;20028;-71
2023/04/28 04:58:35;;;;;;;6.55;0.50;;;;;;;9.64;88.04;101047.53;5061399;28;20043;-71
2023/04/28 05:01:01;;;;;;;1.95;0.40;;;;;;;9.74;87.21;101047.59;5075970;28;20086;-71
2023/04/28 05:03:26;;;;;;;1.60;0.45;;;;;;;9.79;87.06;101043.69;5056756;28;20453;-71
2023/04/28 05:05:52;;;;;;;1.02;0.52;;;;;;;9.85;86.71;101040.56;5068031;28;20068;-71
2023/04/28 05:08:17;;;;;;;1.77;0.40;;;;;;;9.89;86.90;101031.56;5061835;28;20435;-71
2023/04/28 05:10:42;;;;;;;3.47;0.70;;;;;;;9.92;86.13;101035.69;5066781;28;20024;-71
2023/04/28 05:13:08;;;;;;;1.35;0.40;;;;;;;9.96;86.49;101035.28;5063428;28;20028;-71
2023/04/28 05:15:33;;;;;;;3.03;0.45;;;;;;;10.03;86.31;101030.41;5062134;28;20424;-71
2023/04/28 05:17:59;;;;;;;5.65;0.43;;;;;;;10.04;86.34;101033.84;5061526;28;20037;-71
2023/04/28 05:20:24;;;;;;;4.13;0.85;;;;;;;10.05;86.64;101035.50;5069683;28;20042;-71
2023/04/28 05:22:50;;;;;;;1.45;0.65;;;;;;;10.05;86.49;101030.28;5044732;28;20032;-72
2023/04/28 05:25:15;;;;;;;2.13;0.80;;;;;;;10.12;86.83;101037.47;5059369;28;20511;-72
2023/04/28 05:27:41;;;;;;;3.22;0.90;;;;;;;10.16;86.61;101038.03;5059830;28;20166;-71
2023/04/28 05:30:07;;;;;;;1.90;0.82;;;;;;;10.18;86.45;101039.56;5062044;28;20453;-71
2023/04/28 05:32:33;;;;;;;3.08;0.90;;;;;;;10.19;86.67;101037.78;5065602;28;20036;-72
2023/04/28 05:34:59;;;;;;;1.33;0.57;;;;;;;10.24;86.00;101036.47;5039550;28;20059;-71
2023/04/28 05:37:24;;;;;;;1.35;0.63;;;;;;;10.26;85.97;101041.56;5057880;28;20082;-71
2023/04/28 05:39:50;;;;;;;1.38;0.40;;;;;;;10.26;85.91;101060.59;5053781;28;20086;-71
2023/04/28 05:42:15;;;;;;;2.20;0.60;;;;;;;10.22;86.57;101059.22;5057489;28;20029;-72
2023/04/28 05:44:41;;;;;;;2.80;0.50;;;;;;;10.22;86.53;101058.38;5062335;28;20040;-72
2023/04/28 05:47:06;;;;;;;6.60;0.63;;;;;;;10.23;86.86;101057.44;5064820;28;20024;-72
2023/04/28 05:49:31;;;;;;;2.53;0.40;;;;;;;10.25;86.63;101056.34;5064646;28;20033;-72
2023/04/28 05:51:57;;;;;;;2.50;0.40;;;;;;;10.27;86.30;101058.84;5058878;28;20036;-71
2023/04/28 05:54:23;;;;;;;4.40;0.63;;;;;;;10.33;86.59;101062.69;5054248;28;20472;-71
2023/04/28 05:56:50;;;;;;;3.35;0.60;;;;;;;10.38;86.44;101063.16;5067537;28;20064;-71
2023/04/28 05:59:17;;;;;;;9.35;0.52;;;;;;;10.44;85.55;101067.81;5054854;28;20491;-71
2023/04/28 06:01:43;;;;;;;3.42;0.82;;;;;;;10.51;85.38;101063.75;5070376;28;20039;-71
2023/04/28 06:04:09;;;;;;;6.05;0.65;;;;;;;10.59;85.16;101071.75;5065045;28;20077;-71
2023/04/28 06:06:35;;;;;;;2.17;0.80;;;;;;;10.66;85.33;101074.66;5066469;28;20051;-71
2023/04/28 06:09:02;;;;;;;1.92;0.43;;;;;;;10.73;84.86;101081.81;5036004;28;20123;-71
2023/04/28 06:11:28;;;;;;;2.78;0.50;;;;;;;10.78;83.87;101077.06;5046740;28;20451;-71
2023/04/28 06:13:54;;;;;;;2.97;0.85;;;;;;;10.86;84.07;101069.41;5067690;28;20032;-71
2023/04/28 06:16:22;;;;;;;3.20;0.40;;;;;;;10.91;83.29;101077.63;5063696;28;20079;-71
2023/04/28 06:18:48;;;;;;;3.67;0.50;;;;;;;11.04;82.69;101068.75;5062263;28;20473;-70
2023/04/28 06:21:14;;;;;;;2.67;0.70;;;;;;;11.15;82.66;101066.88;5046542;28;20047;-70
2023/04/28 06:23:41;;;;;;;3.17;0.50;;;;;;;11.28;82.69;101072.69;5065772;28;20322;-70
2023/04/28 06:26:08;;;;;;;2.35;0.40;;;;;;;11.35;82.19;101077.34;5064905;28;20039;-71
2023/04/28 06:28:33;;;;;;;1.83;0.50;;;;;;;11.41;82.35;101064.56;5043688;28;20036;-71
2023/04/28 06:31:00;;;;;;;1.55;0.40;;;;;;;11.46;81.92;101067.59;5061180;28;20385;-71
2023/04/28 06:33:26;;;;;;;1.83;0.70;;;;;;;11.65;81.57;101066.81;5072499;28;20498;-71
2023/04/28 06:35:52;;;;;;;3.72;1.00;;;;;;;11.90;80.77;101066.28;5063816;28;20074;-71
2023/04/28 06:38:18;;;;;;;4.13;0.90;;;;;;;12.08;81.29;101066.41;5059514;28;20109;-69
2023/04/28 06:40:44;;;;;;;3.45;0.90;;;;;;;12.21;81.67;101074.78;5057514;28;20450;-69
2023/04/28 06:43:10;;;;;;;6.00;0.65;;;;;;;12.25;81.39;101068.31;5061065;28;20414;-69
2023/04/28 06:45:36;;;;;;;4.28;0.60;;;;;;;12.21;80.90;101066.94;5065970;28;20115;-69
2023/04/28 06:48:02;;;;;;;1.65;0.50;;;;;;;12.22;79.64;101068.59;5065600;28;20405;-68
2023/04/28 06:50:27;;;;;;;0.98;0.32;;;;;;;12.27;79.76;101069.00;5070853;28;20029;-70
2023/04/28 06:52:53;;;;;;;2.70;0.50;;;;;;;12.44;79.47;101069.19;5071753;28;20033;-71
2023/04/28 06:55:18;;;;;;;1.35;0.35;;;;;;;12.53;78.67;101069.19;5060428;28;20036;-71
2023/04/28 06:57:44;;;;;;;2.65;0.60;;;;;;;12.53;78.20;101057.91;5061436;28;20029;-71
2023/04/28 07:00:11;;;;;;;1.25;0.30;;;;;;;12.47;77.70;101055.84;5071104;28;20058;-71
2023/04/28 07:02:37;;;;;;;2.55;0.70;;;;;;;12.40;77.88;101057.38;5071597;28;20052;-70
2023/04/28 07:05:03;;;;;;;4.43;0.75;;;;;;;12.39;78.11;101055.75;5065339;28;20033;-70
2023/04/28 07:07:28;;;;;;;1.50;0.45;;;;;;;12.39;78.20;101061.78;5061498;28;20027;-71
2023/04/28 07:09:54;;;;;;;5.45;0.70;;;;;;;12.39;77.84;101068.81;5062525;28;20036;-70
2023/04/28 07:12:21;;;;;;;2.92;0.68;;;;;;;12.32;78.11;101070.31;5068995;28;20085;-71
2023/04/28 07:14:47;;;;;;;2.63;0.63;;;;;;;12.36;78.32;101066.47;5063226;28;20059;-71
2023/04/28 07:17:12;;;;;;;2.90;0.55;;;;;;;12.36;78.14;101069.91;5058328;28;20118;-70
2023/04/28 07:19:38;;;;;;;2.00;0.38;;;;;;;12.36;77.75;101061.25;5063959;28;20029;-70
2023/04/28 07:22:03;;;;;;;2.25;0.60;;;;;;;12.38;78.12;101064.53;5075403;28;20495;-70
2023/04/28 07:24:29;;;;;;;3.67;0.70;;;;;;;12.41;77.30;101057.25;5071168;28;20024;-70
2023/04/28 07:26:56;;;;;;;2.75;0.60;;;;;;;12.44;77.44;101054.34;5060267;28;20037;-70
2023/04/28 07:29:22;;;;;;;4.82;0.55;;;;;;;12.54;77.30;101049.09;5036536;28;20421;-69
2023/04/28 07:31:47;;;;;;;1.70;0.60;;;;;;;12.58;76.63;101047.84;5063574;28;20033;-70
2023/04/28 07:34:13;;;;;;;3.55;0.70;;;;;;;12.61;76.18;101055.41;5059632;28;20025;-70
2023/04/28 07:36:39;;;;;;;7.95;1.00;;;;;;;12.62;76.83;101049.22;5066368;28;20501;-70
2023/04/28 07:39:04;;;;;;;2.15;0.40;;;;;;;12.62;76.56;101051.81;5064760;28;20126;-70
2023/04/28 07:41:37;;;;;;;6.28;0.60;;;;;;;12.62;76.17;101057.88;5064974;28;20219;-70
2023/04/28 07:44:03;;;;;;;2.33;0.60;;;;;;;12.66;75.91;101058.41;5065797;28;20040;-70
2023/04/28 07:46:29;;;;;;;5.47;0.90;;;;;;;12.66;76.68;101063.66;5067960;28;20399;-69
2023/04/28 07:48:55;;;;;;;1.52;0.82;;;;;;;12.71;76.78;101076.28;5065399;28;20039;-70
2023/04/28 07:51:20;;;;;;;2.80;0.60;;;;;;;12.75;76.26;101081.09;5051099;28;20024;-69
2023/04/28 07:53:45;;;;;;;6.03;0.60;;;;;;;12.74;76.36;101076.81;5064879;28;20028;-70
2023/04/28 07:56:11;;;;;;;3.28;0.52;;;;;;;12.76;76.42;101084.53;5062622;28;20059;-70
2023/04/28 07:58:37;;;;;;;2.88;0.60;;;;;;;12.77;76.11;101091.38;5067034;28;20459;-69
2023/04/28 08:01:02;;;;;;;6.03;0.95;;;;;;;12.74;76.66;101097.75;5065835;28;20056;-70
2023/04/28 08:03:28;;;;;;;4.00;0.70;;;;;;;12.73;76.99;101103.13;5062837;28;20024;-69
2023/04/28 08:05:53;;;;;;;7.10;0.50;;;;;;;12.77;76.99;101107.06;5071485;28;20094;-69
2023/04/28 08:08:19;;;;;;;2.75;0.47;;;;;;;12.75;77.02;101103.78;5074453;28;20487;-70
2023/04/28 08:10:44;;;;;;;1.92;0.50;;;;;;;12.69;78.22;101104.38;5067094;28;20036;-70
2023/04/28 08:13:10;;;;;;;3.13;0.55;;;;;;;12.68;78.07;101100.94;5063016;28;20139;-70
2023/04/28 08:15:35;;;;;;;2.03;0.40;;;;;;;12.70;77.44;101101.59;5067045;28;20032;-70
2023/04/28 08:18:01;;;;;;;6.30;0.73;;;;;;;12.74;76.78;101105.59;5065011;28;20032;-70
2023/04/28 08:20:26;;;;;;;4.57;0.50;;;;;;;12.79;76.27;101103.34;5064297;28;20540;-70
2023/04/28 08:22:52;;;;;;;3.13;0.47;;;;;;;12.83;76.90;101096.84;5065981;28;20161;-70
2023/04/28 08:25:18;;;;;;;4.05;0.73;;;;;;;12.87;76.76;101100.84;5066450;28;20120;-70
2023/04/28 08:27:44;;;;;;;3.60;0.57;;;;;;;12.93;76.94;101102.88;5068147;28;20060;-70
2023/04/28 08:30:10;;;;;;;9.00;0.70;;;;;;;12.95;76.74;101095.72;5064773;28;20465;-70
2023/04/28 08:32:36;;;;;;;2.55;0.50;;;;;;;13.03;76.34;101096.78;5067760;28;20040;-70
2023/04/28 08:35:02;;;;;;;2.95;0.50;;;;;;;13.08;76.35;101107.63;5055079;28;20450;-70
2023/04/28 08:37:28;;;;;;;3.97;0.47;;;;;;;13.14;75.98;101107.06;5075347;28;20132;-68
2023/04/28 08:40:00;;;;;;;4.00;0.40;;;;;;;13.19;75.55;101102.25;5069028;28;20052;-69
2023/04/28 08:42:30;;;;;;;6.95;0.93;;;;;;;13.25;75.54;101094.63;5065632;28;20047;-70
2023/04/28 08:45:02;;;;;;;4.43;0.70;;;;;;;13.29;75.21;101103.81;5067914;28;20036;-70
2023/04/28 08:47:33;;;;;;;2.88;0.50;;;;;;;13.33;74.12;101101.72;5065018;28;20107;-70
2023/04/28 08:50:09;;;;;;;10.60;0.70;;;;;;;13.41;74.46;101104.44;5053245;28;20451;-70
2023/04/28 08:52:35;;;;;;;2.72;0.57;;;;;;;13.48;74.64;101096.84;5076601;28;20028;-69
2023/04/28 08:55:06;;;;;;;6.75;0.63;;;;;;;13.49;74.08;101099.31;5068118;28;20043;-69
2023/04/28 08:57:37;;;;;;;2.60;1.33;;;;;;;13.55;74.09;101101.34;5041123;28;20060;-69
2023/04/28 09:00:04;;;;;;;7.78;0.77;;;;;;;13.63;74.79;101105.00;5058699;28;20040;-69
2023/04/28 09:02:29;;;;;;;6.55;0.98;;;;;;;13.66;74.02;101105.53;5052237;28;20040;-71
2023/04/28 09:04:57;;;;;;;5.47;0.80;;;;;;;13.75;73.56;101101.16;5057947;28;20389;-71
2023/04/28 09:07:23;;;;;;;7.78;0.70;;;;;;;13.77;74.09;101096.59;5053800;28;20075;-71
2023/04/28 09:09:49;;;;;;;4.32;0.70;;;;;;;13.77;73.92;101104.47;5065632;28;20021;-71
2023/04/28 09:12:14;;;;;;;4.65;0.65;;;;;;;13.81;73.23;101100.56;5071090;28;20032;-71
2023/04/28 09:14:40;;;;;;;2.17;0.80;;;;;;;13.83;73.08;101096.00;5073859;28;20044;-68
2023/04/28 09:17:15;;;;;;;5.38;0.70;;;;;;;13.88;73.22;101094.59;5066577;28;20341;-68
2023/04/28 09:19:43;;;;;;;5.47;0.70;;;;;;;13.93;73.51;101096.75;5042249;28;20456;-69
2023/04/28 09:22:09;;;;;;;3.00;1.00;;;;;;;13.93;73.28;101084.50;5071762;28;20047;-69
2023/04/28 09:24:41;;;;;;;13.90;0.73;;;;;;;13.94;74.28;101087.94;5073327;28;20035;-69
2023/04/28 09:27:10;;;;;;;7.72;1.27;;;;;;;13.93;75.58;101096.75;5056839;28;20044;-68
2023/04/28 09:29:55;;;;;;;6.63;0.80;;;;;;;13.87;76.35;101105.22;5064292;28;20044;-69
2023/04/28 09:32:22;;;;;;;3.00;0.77;;;;;;;13.81;77.10;101101.41;5069829;28;20072;-68
2023/04/28 09:34:50;;;;;;;6.65;1.00;;;;;;;13.79;77.84;101107.75;5066006;28;20520;-69
2023/04/28 09:37:24;;;;;;;7.13;1.13;;;;;;;13.77;78.70;101101.84;5064101;28;20127;-69
2023/04/28 09:39:52;;;;;;;6.15;0.90;;;;;;;13.82;79.39;101104.84;5057656;28;20111;-69
2023/04/28 09:42:45;;;;;;;3.47;0.77;;;;;;;13.76;78.71;101105.44;5060911;28;20036;-69
2023/04/28 09:45:13;;;;;;;2.33;0.68;;;;;;;13.77;80.96;101107.91;5059739;28;20045;-70
2023/04/28 09:47:40;;;;;;;2.17;0.82;;;;;;;13.77;81.84;101107.09;5059592;28;20580;-70
2023/04/28 09:50:10;;;;;;;1.67;0.65;;;;;;;13.76;82.30;101106.25;5060093;28;20033;-70
2023/04/28 09:52:36;;;;;;;2.00;0.43;;;;;;;13.74;82.71;101102.13;5060402;28;20484;-70
2023/04/28 09:55:05;;;;;;;3.53;0.60;;;;;;;13.72;83.20;101104.91;5058850;28;20102;-70
2023/04/28 09:57:32;;;;;;;6.57;0.95;;;;;;;13.71;83.38;101107.69;5056164;28;20032;-70
2023/04/28 09:59:59;;;;;;;2.80;0.73;;;;;;;13.66;83.29;101105.53;5055433;28;20159;-69
2023/04/28 10:02:25;;;;;;;1.60;0.63;;;;;;;13.67;83.41;101103.75;5056080;28;20037;-70
2023/04/28 10:04:51;;;;;;;3.58;0.90;;;;;;;13.66;84.77;101095.06;5055617;28;20098;-70
2023/04/28 10:07:20;;;;;;;2.63;0.80;;;;;;;13.64;85.16;101091.75;5053467;28;20045;-70
2023/04/28 10:09:49;;;;;;;6.78;1.40;;;;;;;13.59;86.25;101086.97;5057448;28;20025;-69
2023/04/28 10:12:15;;;;;;;3.05;0.77;;;;;;;13.55;85.93;101084.78;5038665;28;20040;-69
2023/04/28 10:14:41;;;;;;;3.90;1.25;;;;;;;13.51;86.34;101071.19;5046343;28;20035;-69
2023/04/28 10:17:07;;;;;;;2.40;0.93;;;;;;;13.51;85.96;101075.59;5065664;28;20029;-69
2023/04/28 10:19:33;;;;;;;5.88;1.20;;;;;;;13.50;86.26;101074.78;5062266;28;20036;-69
2023/04/28 10:22:27;;;;;;;5.68;1.38;;;;;;;13.51;88.86;101071.19;5058884;28;20032;-69
2023/04/28 10:25:16;;;;;;;3.55;1.55;;;;;;;13.53;90.86;101066.63;5044768;28;20083;-69
2023/04/28 10:27:46;;;;;;;13.10;2.30;;;;;;;13.54;94.59;101068.28;5038777;28;20048;-69
2023/04/28 10:30:14;;;;;;;4.43;2.20;;;;;;;13.51;96.98;101065.13;5048851;28;20415;-69
2023/04/28 10:32:41;;;;;;;7.72;2.30;;;;;;;13.42;99.78;101056.38;5049637;28;20024;-69
2023/04/28 10:35:26;;;;;;;3.17;1.35;;;;;;;13.21;96.66;101047.97;5042512;28;20025;-69
2023/04/28 10:38:16;;;;;;;7.70;1.60;;;;;;;13.10;99.78;101042.91;5065505;28;20090;-69
2023/04/28 10:40:52;;;;;;;3.83;1.63;;;;;;;13.04;98.44;101056.56;5066870;28;20028;-68
2023/04/28 10:43:24;;;;;;;5.03;2.15;;;;;;;13.02;100.00;101059.34;5062985;28;20043;-68
2023/04/28 10:45:52;;;;;;;3.55;1.92;;;;;;;13.03;100.00;101057.53;5060940;28;20077;-68
2023/04/28 10:48:42;;;;;;;6.15;2.20;;;;;;;13.07;100.00;101057.13;5051841;28;20099;-68
2023/04/28 10:51:11;;;;;;;7.85;2.53;;;;;;;13.12;100.00;101054.06;5060786;28;20052;-68
2023/04/28 10:53:44;;;;;;;6.90;1.95;;;;;;;13.05;100.00;101043.34;5061041;28;20033;-68
2023/04/28 10:56:18;;;;;;;8.57;1.63;;;;;;;13.06;100.00;101041.56;5059018;28;20025;-68
2023/04/28 10:58:45;;;;;;;4.82;1.70;;;;;;;13.11;100.00;101041.94;5048122;28;20025;-69
2023/04/28 11:01:20;;;;;;;6.47;2.20;;;;;;;13.24;100.00;101040.63;5054790;28;20025;-68
2023/04/28 11:03:49;;;;;;;4.65;2.13;;;;;;;13.43;100.00;101041.47;5064035;28;20354;-68
2023/04/28 11:06:25;;;;;;;4.75;1.73;;;;;;;13.59;100.00;101039.03;5059536;28;20045;-69
2023/04/28 11:09:11;;;;;;;6.15;2.10;;;;;;;13.68;100.00;101035.50;5062075;28;20028;-69
2023/04/28 11:11:38;;;;;;;4.05;1.40;;;;;;;13.84;100.00;101047.88;5022682;28;20036;-69
2023/04/28 11:14:16;;;;;;;3.63;0.93;;;;;;;13.87;99.68;101052.84;5060195;28;20036;-69
2023/04/28 11:16:49;;;;;;;3.55;1.02;;;;;;;13.90;96.91;101049.91;5062746;28;20029;-69
2023/04/28 11:19:18;;;;;;;11.35;1.58;;;;;;;13.93;97.54;101049.59;5062838;28;20064;-68
2023/04/28 11:21:44;;;;;;;3.25;0.70;;;;;;;13.98;96.96;101049.97;5065537;28;20060;-69
2023/04/28 11:24:10;;;;;;;4.53;0.82;;;;;;;14.08;96.10;101048.09;5066729;28;20060;-69
2023/04/28 11:26:37;;;;;;;3.38;1.08;;;;;;;14.17;95.82;101039.31;5067717;28;20044;-69
2023/04/28 11:29:02;;;;;;;5.40;1.42;;;;;;;14.24;95.30;101031.63;5067470;28;20491;-69